createdAt,value
2023-03-12T00:00:39.680Z,5.32
2023-03-12T00:03:41.308Z,4.47
2023-03-12T00:06:42.937Z,4.82
2023-03-12T00:09:44.576Z,5.13
2023-03-12T00:12:46.357Z,4.40
2023-03-12T00:15:47.996Z,4.50
2023-03-12T00:18:50.686Z,4.97
2023-03-12T00:21:52.304Z,5.00
2023-03-12T00:24:55.126Z,4.60
2023-03-12T00:27:56.790Z,4.35
2023-03-12T00:30:58.520Z,5.00
2023-03-12T00:34:01.124Z,3.92
2023-03-12T00:37:02.777Z,5.15
2023-03-12T00:40:05.781Z,4.45
2023-03-12T00:43:07.468Z,5.05
2023-03-12T00:46:12.241Z,4.00
2023-03-12T00:49:13.845Z,4.13
2023-03-12T00:52:16.348Z,4.88
2023-03-12T00:55:18.138Z,5.13
2023-03-12T00:58:19.812Z,4.63
2023-03-12T01:01:21.952Z,10.68
2023-03-12T01:04:24.137Z,4.43
2023-03-12T01:07:25.896Z,4.47
2023-03-12T01:10:27.606Z,5.07
2023-03-12T01:13:29.304Z,4.13
2023-03-12T01:16:31.145Z,4.63
2023-03-12T01:19:32.828Z,4.70
2023-03-12T01:22:35.064Z,5.53
2023-03-12T01:25:36.830Z,4.83
2023-03-12T01:28:38.502Z,4.03
2023-03-12T01:31:40.218Z,5.80
2023-03-12T01:34:42.014Z,4.28
2023-03-12T01:37:44.177Z,5.50
2023-03-12T01:40:45.896Z,5.43
2023-03-12T01:43:47.788Z,5.88
2023-03-12T01:46:49.736Z,5.95
2023-03-12T01:49:55.528Z,5.63
2023-03-12T01:52:57.164Z,4.97
2023-03-12T01:55:59.382Z,5.83
2023-03-12T01:59:03.921Z,5.13
2023-03-12T02:02:05.717Z,5.00
2023-03-12T02:05:29.831Z,5.82
2023-03-12T02:08:31.586Z,5.32
2023-03-12T02:11:33.244Z,4.57
2023-03-12T02:14:35.005Z,5.40
2023-03-12T02:17:37.077Z,5.57
2023-03-12T02:20:56.803Z,4.95
2023-03-12T02:24:27.634Z,4.50
2023-03-12T02:27:31.635Z,5.13
2023-03-12T02:30:34.004Z,5.43
2023-03-12T02:33:35.728Z,5.43
2023-03-12T02:36:37.448Z,5.03
2023-03-12T02:39:39.374Z,5.80
2023-03-12T02:42:41.019Z,6.40
2023-03-12T02:45:42.738Z,5.57
2023-03-12T02:48:44.401Z,5.30
2023-03-12T02:51:46.324Z,5.63
2023-03-12T02:54:48.002Z,6.07
2023-03-12T02:57:49.920Z,5.30
2023-03-12T03:00:51.572Z,6.32
2023-03-12T03:03:53.275Z,6.05
2023-03-12T03:06:54.967Z,5.27
2023-03-12T03:09:56.626Z,4.40
2023-03-12T03:12:58.342Z,5.18
2023-03-12T03:16:00.653Z,5.70
2023-03-12T03:19:03.238Z,6.80
2023-03-12T03:22:05.474Z,5.55
2023-03-12T03:25:07.815Z,6.30
2023-03-12T03:28:09.488Z,4.83
2023-03-12T03:31:11.324Z,4.90
2023-03-12T03:34:15.050Z,5.85
2023-03-12T03:37:16.840Z,5.28
2023-03-12T03:40:19.017Z,4.65
2023-03-12T03:43:20.885Z,6.15
2023-03-12T03:46:22.799Z,5.93
2023-03-12T03:49:30.538Z,4.20
2023-03-12T03:52:32.423Z,6.28
2023-03-12T03:55:38.267Z,4.72
2023-03-12T03:58:40.222Z,6.55
2023-03-12T04:01:42.002Z,6.22
2023-03-12T04:04:43.705Z,5.67
2023-03-12T04:07:45.590Z,5.20
2023-03-12T04:10:48.677Z,5.73
2023-03-12T04:13:50.629Z,6.97
2023-03-12T04:16:55.389Z,5.70
2023-03-12T04:20:00.391Z,6.93
2023-03-12T04:23:02.147Z,5.60
2023-03-12T04:26:04.499Z,6.35
2023-03-12T04:29:06.264Z,5.90
2023-03-12T04:32:08.497Z,6.20
2023-03-12T04:35:11.273Z,5.93
2023-03-12T04:38:13.357Z,5.07
2023-03-12T04:41:15.344Z,5.18
2023-03-12T04:44:27.152Z,4.63
2023-03-12T04:47:30.820Z,5.82
2023-03-12T04:50:32.610Z,9.87
2023-03-12T04:53:34.521Z,8.40
2023-03-12T04:56:37.412Z,5.18
2023-03-12T04:59:39.254Z,5.70
2023-03-12T05:02:41.323Z,5.28
2023-03-12T05:05:43.167Z,5.00
2023-03-12T05:08:45.641Z,6.37
2023-03-12T05:11:47.644Z,5.50
2023-03-12T05:14:52.583Z,6.47
2023-03-12T05:17:54.952Z,5.70
2023-03-12T05:21:00.751Z,6.07
2023-03-12T05:24:02.754Z,5.15
2023-03-12T05:27:04.967Z,4.43
2023-03-12T05:30:07.515Z,5.30
2023-03-12T05:33:11.128Z,6.35
2023-03-12T05:36:13.362Z,4.78
2023-03-12T05:39:15.396Z,5.45
2023-03-12T05:42:17.730Z,5.95
2023-03-12T05:45:19.645Z,5.20
2023-03-12T05:48:24.957Z,4.80
2023-03-12T05:51:26.616Z,5.10
2023-03-12T05:54:28.260Z,5.33
2023-03-12T05:57:29.913Z,5.13
2023-03-12T06:00:32.481Z,4.97
2023-03-12T06:03:34.348Z,5.10
2023-03-12T06:06:36.325Z,5.90
2023-03-12T06:09:45.905Z,5.88
2023-03-12T06:12:48.651Z,5.47
2023-03-12T06:15:50.290Z,5.18
2023-03-12T06:19:00.282Z,5.22
2023-03-12T06:22:02.064Z,5.47
2023-03-12T06:25:04.546Z,4.25
2023-03-12T06:28:06.409Z,4.80
2023-03-12T06:31:08.143Z,7.28
2023-03-12T06:34:09.820Z,5.38
2023-03-12T06:37:11.494Z,5.57
2023-03-12T06:40:13.232Z,4.75
2023-03-12T06:43:14.874Z,4.55
2023-03-12T06:46:17.953Z,3.97
2023-03-12T06:49:19.616Z,4.00
2023-03-12T06:52:21.280Z,3.72
2023-03-12T06:55:22.958Z,4.43
2023-03-12T06:58:24.615Z,5.07
2023-03-12T07:01:26.273Z,4.78
2023-03-12T07:04:27.998Z,4.55
2023-03-12T07:07:29.645Z,4.73
2023-03-12T07:10:31.352Z,5.00
2023-03-12T07:13:33.035Z,3.33
2023-03-12T07:16:34.730Z,4.65
2023-03-12T07:19:36.432Z,3.47
2023-03-12T07:22:38.102Z,3.35
2023-03-12T07:25:40.540Z,3.35
2023-03-12T07:28:42.182Z,3.60
2023-03-12T07:31:43.936Z,4.63
2023-03-12T07:34:45.618Z,2.90
2023-03-12T07:37:47.479Z,5.13
2023-03-12T07:40:53.257Z,4.88
2023-03-12T07:43:54.965Z,3.97
2023-03-12T07:46:56.777Z,4.65
2023-03-12T07:49:58.575Z,4.53
2023-03-12T07:53:00.256Z,3.70
2023-03-12T07:56:02.067Z,5.72
2023-03-12T07:59:03.899Z,3.88
2023-03-12T08:02:05.701Z,4.18
2023-03-12T08:05:07.714Z,4.30
2023-03-12T08:08:09.531Z,3.17
2023-03-12T08:11:11.260Z,3.22
2023-03-12T08:14:12.944Z,3.23
2023-03-12T08:17:14.740Z,4.93
2023-03-12T08:20:16.464Z,4.30
2023-03-12T08:23:18.232Z,4.63
2023-03-12T08:26:19.891Z,4.00
2023-03-12T08:29:21.529Z,3.77
2023-03-12T08:32:23.288Z,4.43
2023-03-12T08:35:25.035Z,4.00
2023-03-12T08:38:26.701Z,5.80
2023-03-12T08:41:28.371Z,2.65
2023-03-12T08:44:30.063Z,7.50
2023-03-12T08:47:31.796Z,4.70
2023-03-12T08:50:33.464Z,4.53
2023-03-12T08:53:36.028Z,2.63
2023-03-12T08:56:37.669Z,3.63
2023-03-12T08:59:39.375Z,3.58
2023-03-12T09:02:41.506Z,4.35
2023-03-12T09:05:43.318Z,4.03
2023-03-12T09:08:45.067Z,3.67
2023-03-12T09:11:46.755Z,3.58
2023-03-12T09:15:03.007Z,4.95
2023-03-12T09:18:06.908Z,3.78
2023-03-12T09:21:08.561Z,4.05
2023-03-12T09:24:10.924Z,3.38
2023-03-12T09:27:12.569Z,3.70
2023-03-12T09:30:17.234Z,4.45
2023-03-12T09:33:18.900Z,6.63
2023-03-12T09:36:20.638Z,6.40
2023-03-12T09:39:22.282Z,7.40
2023-03-12T09:42:26.165Z,3.90
2023-03-12T09:45:30.794Z,4.20
2023-03-12T09:48:35.958Z,5.05
2023-03-12T09:51:43.033Z,5.18
2023-03-12T09:54:47.975Z,4.60
2023-03-12T09:57:50.159Z,6.00
2023-03-12T10:00:57.265Z,4.03
2023-03-12T10:04:07.376Z,4.43
2023-03-12T10:07:23.326Z,5.90
2023-03-12T10:10:46.821Z,4.25
2023-03-12T10:14:23.752Z,5.47
2023-03-12T10:18:04.216Z,5.20
2023-03-12T10:21:24.497Z,4.53
2023-03-12T10:24:40.137Z,5.90
2023-03-12T10:27:41.820Z,5.15
2023-03-12T10:30:48.472Z,4.07
2023-03-12T10:33:56.086Z,5.50
2023-03-12T10:37:12.866Z,5.75
2023-03-12T10:40:19.701Z,4.75
2023-03-12T10:43:21.572Z,4.35
2023-03-12T10:47:08.364Z,4.60
2023-03-12T10:50:18.732Z,3.87
2023-03-12T10:53:29.659Z,5.07
2023-03-12T10:56:31.607Z,4.95
2023-03-12T10:59:38.112Z,6.85
2023-03-12T11:02:56.627Z,4.95
2023-03-12T11:06:02.175Z,6.78
2023-03-12T11:09:17.073Z,4.13
2023-03-12T11:12:24.839Z,4.95
2023-03-12T11:15:30.366Z,6.25
2023-03-12T11:18:36.238Z,4.85
2023-03-12T11:21:40.995Z,7.18
2023-03-12T11:25:00.153Z,5.18
2023-03-12T11:28:01.883Z,5.22
2023-03-12T11:31:03.838Z,6.53
2023-03-12T11:34:07.270Z,5.97
2023-03-12T11:37:21.016Z,6.55
2023-03-12T11:40:53.360Z,7.97
2023-03-12T11:44:07.693Z,5.05
2023-03-12T11:47:37.069Z,5.80
2023-03-12T11:51:03.698Z,5.40
2023-03-12T11:54:37.453Z,4.95
2023-03-12T11:57:56.137Z,6.07
2023-03-12T12:01:11.760Z,5.53
2023-03-12T12:04:35.404Z,5.67
2023-03-12T12:08:21.532Z,5.40
2023-03-12T12:11:35.671Z,13.33
2023-03-12T12:14:37.251Z,6.13
2023-03-12T12:18:08.154Z,5.13
2023-03-12T12:21:12.504Z,5.50
2023-03-12T12:24:24.355Z,6.03
2023-03-12T12:27:29.788Z,6.43
2023-03-12T12:30:53.065Z,5.43
2023-03-12T12:34:17.458Z,5.97
2023-03-12T12:37:44.200Z,5.22
2023-03-12T12:40:55.992Z,5.90
2023-03-12T12:44:11.263Z,5.90
2023-03-12T12:47:14.088Z,5.63
2023-03-12T12:50:21.532Z,5.68
2023-03-12T12:53:36.461Z,5.23
2023-03-12T12:56:46.025Z,4.43
2023-03-12T13:00:01.943Z,4.80
2023-03-12T13:03:03.808Z,4.28
2023-03-12T13:06:06.377Z,5.03
2023-03-12T13:09:16.840Z,4.45
2023-03-12T13:12:57.145Z,4.33
2023-03-12T13:16:23.739Z,4.22
2023-03-12T13:19:26.488Z,4.40
2023-03-12T13:22:28.177Z,4.88
2023-03-12T13:25:41.882Z,6.10
2023-03-12T13:28:56.862Z,4.93
2023-03-12T13:31:58.832Z,5.20
2023-03-12T13:35:06.612Z,6.53
2023-03-12T13:38:12.417Z,4.97
2023-03-12T13:41:14.278Z,4.95
2023-03-12T13:44:29.355Z,5.15
2023-03-12T13:47:32.045Z,5.18
2023-03-12T13:50:41.962Z,5.18
2023-03-12T13:53:47.430Z,5.35
2023-03-12T13:56:57.872Z,4.63
2023-03-12T14:00:00.002Z,5.78
2023-03-12T14:03:09.619Z,5.28
2023-03-12T14:06:13.528Z,4.80
2023-03-12T14:09:15.616Z,5.78
2023-03-12T14:12:39.198Z,5.57
2023-03-12T14:15:46.828Z,6.10
2023-03-12T14:18:48.948Z,4.78
2023-03-12T14:21:51.136Z,5.53
2023-03-12T14:24:57.766Z,5.85
2023-03-12T14:28:00.189Z,4.97
2023-03-12T14:31:17.077Z,5.73
2023-03-12T14:34:26.109Z,5.80
2023-03-12T14:37:40.334Z,6.10
2023-03-12T14:40:55.459Z,5.03
2023-03-12T14:44:05.176Z,4.60
2023-03-12T14:47:08.703Z,6.15
2023-03-12T14:50:21.774Z,5.82
2023-03-12T14:53:27.241Z,5.05
2023-03-12T14:56:32.706Z,5.90
2023-03-12T14:59:34.987Z,6.15
2023-03-12T15:02:38.439Z,7.15
2023-03-12T15:05:47.998Z,6.45
2023-03-12T15:08:50.003Z,6.93
2023-03-12T15:12:07.948Z,5.78
2023-03-12T15:15:12.032Z,6.20
2023-03-12T15:18:28.470Z,5.68
2023-03-12T15:21:35.127Z,6.97
2023-03-12T15:24:40.160Z,6.63
2023-03-12T15:27:41.841Z,5.85
2023-03-12T15:30:44.263Z,5.90
2023-03-12T15:33:59.015Z,6.10
2023-03-12T15:37:02.000Z,6.97
2023-03-12T15:40:17.429Z,7.10
2023-03-12T15:43:20.906Z,7.18
2023-03-12T15:46:24.093Z,6.27
2023-03-12T15:49:28.663Z,6.95
2023-03-12T15:52:35.016Z,7.57
2023-03-12T15:55:37.396Z,7.65
2023-03-12T15:58:40.807Z,6.35
2023-03-12T16:01:53.032Z,6.93
2023-03-12T16:04:54.949Z,6.47
2023-03-12T16:07:57.592Z,6.57
2023-03-12T16:11:00.055Z,6.50
2023-03-12T16:14:03.663Z,5.65
2023-03-12T16:17:11.548Z,6.37
2023-03-12T16:20:15.029Z,6.35
2023-03-12T16:23:17.315Z,5.50
2023-03-12T16:26:20.588Z,6.18
2023-03-12T16:29:23.137Z,6.72
2023-03-12T16:32:26.141Z,7.67
2023-03-12T16:35:28.634Z,6.63
2023-03-12T16:38:32.388Z,5.50
2023-03-12T16:41:36.921Z,7.10
2023-03-12T16:44:38.990Z,6.57
2023-03-12T16:47:41.621Z,6.05
2023-03-12T16:50:48.636Z,7.13
2023-03-12T16:54:06.776Z,6.90
2023-03-12T16:57:16.984Z,11.20
2023-03-12T17:00:23.186Z,6.53
2023-03-12T17:03:36.831Z,6.75
2023-03-12T17:06:39.905Z,8.02
2023-03-12T17:09:42.332Z,6.00
2023-03-12T17:12:46.437Z,7.35
2023-03-12T17:15:50.919Z,6.57
2023-03-12T17:18:53.248Z,11.63
2023-03-12T17:21:55.134Z,7.70
2023-03-12T17:24:58.162Z,8.60
2023-03-12T17:28:00.854Z,8.23
2023-03-12T17:31:03.008Z,9.05
2023-03-12T17:34:05.608Z,9.02
2023-03-12T17:37:08.012Z,6.90
2023-03-12T17:40:12.789Z,8.65
2023-03-12T17:43:15.289Z,8.38
2023-03-12T17:46:17.829Z,7.47
2023-03-12T17:49:20.223Z,10.30
2023-03-12T17:52:23.152Z,10.70
2023-03-12T17:55:25.971Z,7.05
2023-03-12T17:58:28.577Z,7.53
2023-03-12T18:01:31.468Z,7.53
2023-03-12T18:04:34.288Z,7.80
2023-03-12T18:07:37.054Z,9.23
2023-03-12T18:10:39.790Z,8.70
2023-03-12T18:13:42.087Z,9.88
2023-03-12T18:16:44.718Z,8.68
2023-03-12T18:19:47.156Z,7.60
2023-03-12T18:22:49.735Z,7.25
2023-03-12T18:25:52.435Z,7.82
2023-03-12T18:28:55.084Z,9.23
2023-03-12T18:31:57.690Z,8.43
2023-03-12T18:34:59.880Z,8.20
2023-03-12T18:38:03.767Z,10.82
2023-03-12T18:41:07.291Z,10.30
2023-03-12T18:44:10.588Z,7.97
2023-03-12T18:47:13.687Z,9.52
2023-03-12T18:50:18.753Z,8.40
2023-03-12T18:53:22.877Z,7.28
2023-03-12T18:56:26.056Z,6.07
2023-03-12T18:59:32.209Z,6.43
2023-03-12T19:02:34.922Z,7.07
2023-03-12T19:05:37.317Z,7.00
2023-03-12T19:08:40.031Z,7.18
2023-03-12T19:11:42.670Z,7.53
2023-03-12T19:14:45.751Z,8.65
2023-03-12T19:17:48.561Z,8.00
2023-03-12T19:20:51.087Z,7.18
2023-03-12T19:23:53.965Z,13.87
2023-03-12T19:26:56.772Z,7.72
2023-03-12T19:29:59.511Z,6.80
2023-03-12T19:33:03.380Z,7.40
2023-03-12T19:36:05.835Z,6.80
2023-03-12T19:39:20.552Z,6.78
2023-03-12T19:42:24.175Z,8.38
2023-03-12T19:45:27.094Z,7.55
2023-03-12T19:48:32.746Z,8.60
2023-03-12T19:51:40.408Z,8.07
2023-03-12T19:54:49.093Z,8.13
2023-03-12T19:57:57.656Z,8.55
2023-03-12T20:01:02.958Z,8.10
2023-03-12T20:04:07.041Z,18.65
2023-03-12T20:07:09.677Z,14.88
2023-03-12T20:10:12.726Z,8.93
2023-03-12T20:13:15.541Z,9.13
2023-03-12T20:16:19.419Z,7.30
2023-03-12T20:19:22.350Z,7.80
2023-03-12T20:22:27.797Z,7.05
2023-03-12T20:25:31.219Z,7.00
2023-03-12T20:28:33.976Z,6.70
2023-03-12T20:31:37.135Z,6.13
2023-03-12T20:34:39.716Z,5.63
2023-03-12T20:37:42.163Z,5.80
2023-03-12T20:40:48.267Z,6.15
2023-03-12T20:43:55.994Z,4.13
2023-03-12T20:46:59.350Z,4.20
2023-03-12T20:50:01.759Z,3.93
2023-03-12T20:53:04.395Z,3.78
2023-03-12T20:56:07.214Z,4.03
2023-03-12T20:59:13.561Z,5.40
2023-03-12T21:02:16.325Z,3.00
2023-03-12T21:05:19.010Z,5.35
2023-03-12T21:08:21.065Z,4.97
2023-03-12T21:11:23.600Z,5.13
2023-03-12T21:14:27.066Z,6.40
2023-03-12T21:17:31.039Z,5.70
2023-03-12T21:20:34.579Z,5.78
2023-03-12T21:23:37.094Z,5.67
2023-03-12T21:26:39.176Z,5.00
2023-03-12T21:29:40.948Z,4.18
2023-03-12T21:32:42.617Z,5.75
2023-03-12T21:35:45.170Z,5.68
2023-03-12T21:38:47.012Z,4.97
2023-03-12T21:41:49.010Z,6.32
2023-03-12T21:44:51.006Z,6.60
2023-03-12T21:47:52.772Z,6.05
2023-03-12T21:50:54.576Z,4.53
2023-03-12T21:53:56.728Z,4.93
2023-03-12T21:57:00.944Z,4.70
2023-03-12T22:00:04.159Z,4.78
2023-03-12T22:03:05.944Z,4.72
2023-03-12T22:06:07.808Z,5.47
2023-03-12T22:09:09.476Z,4.35
2023-03-12T22:12:11.125Z,5.05
2023-03-12T22:15:12.772Z,5.53
2023-03-12T22:18:14.416Z,4.80
2023-03-12T22:21:20.554Z,5.60
2023-03-12T22:24:22.165Z,4.07
2023-03-12T22:27:23.830Z,4.35
2023-03-12T22:30:25.670Z,4.68
2023-03-12T22:33:27.592Z,6.05
2023-03-12T22:36:29.368Z,4.70
2023-03-12T22:39:30.996Z,5.20
2023-03-12T22:42:33.357Z,6.15
2023-03-12T22:45:35.075Z,4.53
2023-03-12T22:48:36.760Z,4.38
2023-03-12T22:51:38.452Z,3.00
2023-03-12T22:54:40.099Z,4.60
2023-03-12T22:57:41.768Z,3.90
2023-03-12T23:00:43.412Z,5.40
2023-03-12T23:03:45.320Z,3.87
2023-03-12T23:06:46.940Z,3.33
2023-03-12T23:09:48.600Z,3.37
2023-03-12T23:12:50.251Z,3.42
2023-03-12T23:15:52.034Z,4.85
2023-03-12T23:18:53.811Z,3.67
2023-03-12T23:21:55.450Z,4.82
2023-03-12T23:24:57.106Z,3.50
2023-03-12T23:27:58.745Z,4.13
2023-03-12T23:31:01.299Z,3.93
2023-03-12T23:34:02.992Z,4.35
2023-03-12T23:37:04.840Z,3.85
2023-03-12T23:40:07.320Z,4.23
2023-03-12T23:43:11.517Z,3.83
2023-03-12T23:46:13.464Z,4.50
2023-03-12T23:49:15.180Z,4.72
2023-03-12T23:52:19.665Z,4.50
2023-03-12T23:55:21.331Z,4.07
2023-03-12T23:58:23.880Z,4.65
